createdAt,value
2022-11-19T00:04:01.468Z,6.70
2022-11-19T00:09:05.658Z,6.80
2022-11-19T00:14:12.666Z,6.90
2022-11-19T00:19:14.922Z,6.90
2022-11-19T00:24:17.066Z,7.30
2022-11-19T00:29:19.159Z,6.50
2022-11-19T00:34:22.964Z,6.80
2022-11-19T00:39:24.815Z,7.20
2022-11-19T00:44:26.694Z,6.80
2022-11-19T00:49:28.556Z,6.70
2022-11-19T00:54:30.724Z,6.80
2022-11-19T00:59:32.621Z,6.00
2022-11-19T01:04:34.555Z,6.60
2022-11-19T01:09:36.465Z,7.60
2022-11-19T01:14:38.449Z,6.60
2022-11-19T01:19:40.367Z,5.70
2022-11-19T01:24:42.185Z,5.90
2022-11-19T01:29:44.112Z,6.10
2022-11-19T01:34:46.032Z,6.20
2022-11-19T01:39:48.013Z,5.80
2022-11-19T01:45:02.701Z,6.30
2022-11-19T01:50:05.750Z,6.00
2022-11-19T01:55:08.686Z,5.20
2022-11-19T02:00:11.644Z,6.00
2022-11-19T02:05:13.958Z,5.00
2022-11-19T02:10:16.131Z,4.50
2022-11-19T02:15:23.244Z,5.20
2022-11-19T02:20:34.203Z,4.70
2022-11-19T02:25:38.989Z,5.20
2022-11-19T02:30:46.710Z,6.50
2022-11-19T02:35:58.854Z,7.20
2022-11-19T02:41:32.289Z,7.90
2022-11-19T02:46:34.363Z,8.70
2022-11-19T02:51:36.398Z,8.00
2022-11-19T02:56:52.056Z,9.30
2022-11-19T03:02:12.620Z,9.30
2022-11-19T03:07:18.291Z,10.00
2022-11-19T03:12:35.545Z,9.80
2022-11-19T03:18:09.685Z,8.20
2022-11-19T03:23:27.171Z,9.10
2022-11-19T03:28:34.233Z,9.80
2022-11-19T03:33:47.487Z,9.80
2022-11-19T03:39:04.295Z,10.60
2022-11-19T03:44:18.863Z,10.10
2022-11-19T03:49:31.708Z,9.80
2022-11-19T03:54:34.268Z,10.70
2022-11-19T03:59:36.234Z,11.10
2022-11-19T04:04:39.031Z,13.30
2022-11-19T04:09:42.028Z,12.10
2022-11-19T04:14:43.932Z,12.50
2022-11-19T04:19:46.730Z,11.30
2022-11-19T04:24:48.626Z,9.90
2022-11-19T04:29:50.501Z,10.00
2022-11-19T04:34:52.361Z,10.20
2022-11-19T04:39:54.160Z,8.90
2022-11-19T04:44:56.004Z,8.30
2022-11-19T04:49:57.828Z,7.70
2022-11-19T04:54:59.640Z,7.80
2022-11-19T05:00:01.570Z,8.80
2022-11-19T05:05:03.598Z,7.90
2022-11-19T05:10:05.902Z,8.60
2022-11-19T05:15:08.713Z,9.80
2022-11-19T05:20:10.848Z,9.20
2022-11-19T05:25:12.765Z,8.10
2022-11-19T05:30:15.227Z,9.10
2022-11-19T05:35:17.214Z,10.30
2022-11-19T05:40:19.078Z,9.20
2022-11-19T05:45:21.197Z,8.20
2022-11-19T05:50:23.145Z,8.80
2022-11-19T05:55:25.128Z,9.00
2022-11-19T06:00:27.027Z,8.80
2022-11-19T06:05:28.821Z,9.50
2022-11-19T06:10:30.625Z,10.70
2022-11-19T06:15:32.454Z,8.00
2022-11-19T06:20:34.319Z,11.20
2022-11-19T06:25:36.258Z,10.20
2022-11-19T06:30:38.281Z,11.10
2022-11-19T06:35:40.134Z,11.00
2022-11-19T06:40:42.822Z,9.60
2022-11-19T06:45:44.726Z,11.60
2022-11-19T06:50:47.221Z,11.10
2022-11-19T06:55:49.111Z,10.30
2022-11-19T07:00:51.150Z,11.40
2022-11-19T07:05:59.211Z,11.10
2022-11-19T07:11:22.392Z,11.00
2022-11-19T07:16:33.253Z,11.70
2022-11-19T07:21:36.283Z,11.40
2022-11-19T07:26:38.541Z,14.60
2022-11-19T07:31:40.581Z,12.40
2022-11-19T07:36:42.869Z,13.10
2022-11-19T07:42:03.638Z,11.60
2022-11-19T07:47:08.363Z,12.20
2022-11-19T07:52:10.221Z,12.00
2022-11-19T07:57:12.277Z,11.40
2022-11-19T08:02:15.179Z,10.90
2022-11-19T08:07:17.311Z,11.30
2022-11-19T08:12:19.418Z,10.80
2022-11-19T08:17:40.022Z,11.20
2022-11-19T08:22:42.932Z,11.20
2022-11-19T08:27:44.802Z,10.90
2022-11-19T08:32:46.812Z,10.00
2022-11-19T08:37:48.829Z,11.50
2022-11-19T08:42:59.945Z,10.70
2022-11-19T08:48:05.572Z,8.10
2022-11-19T08:53:07.518Z,9.40
2022-11-19T08:58:11.435Z,9.40
2022-11-19T09:03:13.266Z,7.60
2022-11-19T09:08:15.131Z,8.80
2022-11-19T09:13:17.024Z,8.20
2022-11-19T09:18:18.932Z,9.30
2022-11-19T09:23:21.559Z,8.40
2022-11-19T09:28:23.426Z,7.90
2022-11-19T09:33:26.124Z,7.80
2022-11-19T09:38:28.498Z,6.70
2022-11-19T09:43:49.213Z,7.20
2022-11-19T09:48:55.033Z,7.30
2022-11-19T09:54:05.981Z,8.20
2022-11-19T09:59:21.733Z,8.10
2022-11-19T10:04:26.992Z,7.40
2022-11-19T10:09:31.991Z,6.00
2022-11-19T10:14:43.184Z,6.60
2022-11-19T10:20:10.291Z,5.60
2022-11-19T10:25:22.952Z,6.00
2022-11-19T10:30:29.025Z,5.50
2022-11-19T10:35:39.039Z,6.30
2022-11-19T10:40:44.985Z,6.00
2022-11-19T10:45:46.793Z,5.30
2022-11-19T10:50:49.641Z,4.10
2022-11-19T10:55:57.773Z,4.20
2022-11-19T11:01:02.658Z,4.50
2022-11-19T11:06:07.912Z,4.10
2022-11-19T11:11:11.070Z,3.70
2022-11-19T11:16:20.169Z,4.20
2022-11-19T11:21:30.606Z,4.60
2022-11-19T11:26:34.815Z,3.90
2022-11-19T11:31:47.348Z,3.90
2022-11-19T11:36:49.230Z,4.60
2022-11-19T11:42:05.410Z,5.00
2022-11-19T11:47:15.165Z,7.00
2022-11-19T11:52:33.695Z,7.60
2022-11-19T11:57:49.992Z,7.60
2022-11-19T12:03:05.945Z,17.30
2022-11-19T12:08:27.107Z,14.60
2022-11-19T12:13:43.968Z,10.20
2022-11-19T12:18:45.790Z,8.60
2022-11-19T12:24:15.910Z,9.10
2022-11-19T12:29:36.673Z,8.70
2022-11-19T12:34:57.147Z,8.20
2022-11-19T12:40:20.602Z,9.50
2022-11-19T12:45:30.628Z,8.90
2022-11-19T12:50:50.937Z,8.10
2022-11-19T12:56:15.691Z,8.70
2022-11-19T13:01:27.494Z,9.30
2022-11-19T13:06:41.721Z,20.70
2022-11-19T13:11:50.024Z,11.70
2022-11-19T13:16:54.598Z,9.10
2022-11-19T13:22:02.662Z,9.30
2022-11-19T13:27:09.667Z,9.10
2022-11-19T13:32:48.023Z,9.30
2022-11-19T13:38:02.918Z,10.00
2022-11-19T13:43:32.533Z,8.50
2022-11-19T13:48:41.689Z,6.90
2022-11-19T13:53:46.323Z,7.20
2022-11-19T13:58:51.757Z,7.60
2022-11-19T14:04:28.038Z,7.20
2022-11-19T14:09:48.739Z,7.00
2022-11-19T14:15:40.392Z,7.60
2022-11-19T14:21:02.978Z,8.30
2022-11-19T14:26:22.543Z,8.20
2022-11-19T14:31:24.543Z,8.50
2022-11-19T14:36:29.602Z,9.00
2022-11-19T14:41:33.893Z,8.50
2022-11-19T14:46:45.796Z,8.30
2022-11-19T14:51:53.656Z,9.70
2022-11-19T14:57:13.683Z,7.80
2022-11-19T15:02:34.601Z,10.20
2022-11-19T15:07:39.951Z,10.00
2022-11-19T15:12:44.913Z,9.50
2022-11-19T15:17:50.876Z,10.80
2022-11-19T15:23:06.717Z,11.20
2022-11-19T15:28:18.846Z,10.70
2022-11-19T15:33:47.159Z,10.10
2022-11-19T15:38:57.616Z,11.80
2022-11-19T15:44:04.508Z,10.60
2022-11-19T15:49:26.949Z,10.30
2022-11-19T15:54:34.704Z,10.20
2022-11-19T15:59:38.406Z,13.20
2022-11-19T16:04:41.069Z,12.80
2022-11-19T16:09:42.963Z,10.60
2022-11-19T16:15:12.309Z,13.10
2022-11-19T16:20:14.125Z,13.20
2022-11-19T16:25:31.496Z,12.80
2022-11-19T16:30:46.429Z,14.90
2022-11-19T16:35:52.829Z,16.80
2022-11-19T16:41:16.030Z,15.80
2022-11-19T16:46:22.358Z,12.30
2022-11-19T16:51:31.881Z,14.60
2022-11-19T16:56:45.935Z,15.60
2022-11-19T17:01:54.072Z,15.10
2022-11-19T17:06:57.748Z,14.30
2022-11-19T17:12:18.024Z,15.10
2022-11-19T17:17:39.980Z,16.70
2022-11-19T17:22:42.564Z,13.70
2022-11-19T17:27:51.399Z,18.50
2022-11-19T17:32:54.588Z,23.30
2022-11-19T17:37:58.931Z,40.90
2022-11-19T17:43:19.650Z,43.80
2022-11-19T17:48:24.152Z,25.20
2022-11-19T17:53:26.133Z,23.00
2022-11-19T17:58:28.086Z,26.40
2022-11-19T18:03:30.045Z,30.90
2022-11-19T18:08:33.078Z,41.00
2022-11-19T18:13:36.826Z,35.20
2022-11-19T18:18:38.704Z,36.30
2022-11-19T18:23:41.954Z,48.30
2022-11-19T18:28:47.735Z,47.60
2022-11-19T18:33:50.930Z,36.60
2022-11-19T18:38:55.757Z,34.50
2022-11-19T18:44:16.417Z,40.90
2022-11-19T18:49:18.577Z,45.80
2022-11-19T18:54:21.042Z,43.50
2022-11-19T18:59:23.960Z,48.70
2022-11-19T19:04:26.538Z,40.30
2022-11-19T19:09:28.425Z,44.60
2022-11-19T19:14:30.293Z,42.30
2022-11-19T19:19:32.193Z,41.30
2022-11-19T19:24:34.101Z,36.40
2022-11-19T19:29:35.994Z,34.90
2022-11-19T19:34:37.891Z,30.70
2022-11-19T19:39:39.777Z,28.50
2022-11-19T19:44:41.673Z,28.00
2022-11-19T19:49:43.675Z,35.40
2022-11-19T19:54:45.556Z,33.10
2022-11-19T19:59:47.432Z,33.70
2022-11-19T20:04:49.322Z,42.20
2022-11-19T20:09:51.207Z,50.00
2022-11-19T20:14:53.101Z,47.60
2022-11-19T20:19:54.924Z,49.00
2022-11-19T20:24:56.765Z,48.90
2022-11-19T20:30:00.087Z,49.30
2022-11-19T20:35:02.160Z,51.20
2022-11-19T20:40:04.263Z,52.90
2022-11-19T20:45:08.407Z,52.40
2022-11-19T20:50:10.448Z,54.70
2022-11-19T20:55:12.364Z,56.00
2022-11-19T21:00:15.373Z,55.40
2022-11-19T21:05:17.354Z,53.60
2022-11-19T21:10:19.428Z,49.70
2022-11-19T21:15:21.228Z,51.60
2022-11-19T21:20:23.332Z,46.40
2022-11-19T21:25:25.260Z,48.40
2022-11-19T21:30:27.192Z,47.30
2022-11-19T21:35:29.065Z,55.00
2022-11-19T21:40:30.974Z,55.30
2022-11-19T21:45:32.948Z,58.90
2022-11-19T21:50:38.588Z,59.70
2022-11-19T21:55:45.001Z,61.40
2022-11-19T22:00:47.135Z,49.00
2022-11-19T22:05:59.313Z,64.20
2022-11-19T22:11:21.445Z,59.20
2022-11-19T22:16:24.541Z,48.10
2022-11-19T22:21:29.254Z,42.00
2022-11-19T22:26:31.303Z,54.80
2022-11-19T22:31:34.044Z,56.70
2022-11-19T22:36:35.925Z,67.70
2022-11-19T22:41:37.732Z,65.70
2022-11-19T22:46:39.529Z,73.00
2022-11-19T22:51:41.521Z,75.60
2022-11-19T22:56:43.504Z,74.80
2022-11-19T23:01:45.335Z,74.20
2022-11-19T23:06:47.224Z,76.00
2022-11-19T23:12:07.882Z,76.80
2022-11-19T23:17:09.732Z,74.10
2022-11-19T23:22:11.537Z,74.10
2022-11-19T23:27:16.722Z,78.70
2022-11-19T23:32:22.632Z,75.50
2022-11-19T23:37:24.458Z,74.70
2022-11-19T23:42:26.409Z,73.00
2022-11-19T23:47:28.207Z,60.60
2022-11-19T23:52:30.073Z,46.50
2022-11-19T23:57:31.954Z,45.60
